Terminal Aerodrome Forecast
Issued by NWS

Home | Current Version | Previous Version | Text Only | Print | Product List | Glossary On
Versions: 1 2 3 4 5 6 7 8 9 10 11 12 13 14 15 16 17 18 19 20 21 22 23 24 25 26 27 28 29 30 31 32 33 34 35 36
711
FTUS43 KDTX 110535 RRA
TAFPTK
TAF
KPTK 110535Z 1106/1206 23005KT P6SM -SHSN BKN040 OVC100
     FM110700 21005KT 3SM -SN BKN025 OVC040
     FM110900 17007KT 1 1/2SM -SN OVC015
     FM111600 16010KT 3/4SM -SN OVC010
     FM111900 16010KT 1/2SM SN OVC005
     FM120100 18010KT 3/4SM -SN OVC006
     FM120400 19010KT 3SM -SN OVC009=

USA.gov is the U.S. government's official web portal to all federal, state and local government web resources and services.